createdAt,value
2019-06-01T00:00:50.638Z,17.00
2019-06-01T00:15:50.918Z,17.03
2019-06-01T00:30:52.067Z,17.21
2019-06-01T00:45:54.021Z,17.19
2019-06-01T01:00:53.760Z,17.25
2019-06-01T01:15:51.461Z,17.26
2019-06-01T01:31:05.529Z,17.13
2019-06-01T01:45:51.265Z,17.07
2019-06-01T02:00:54.047Z,17.03
2019-06-01T02:15:54.125Z,17.04
2019-06-01T02:30:50.680Z,16.97
2019-06-01T02:45:58.083Z,16.94
2019-06-01T03:15:53.893Z,16.85
2019-06-01T03:30:50.959Z,16.98
2019-06-01T03:45:54.344Z,17.33
2019-06-01T04:00:50.692Z,17.94
2019-06-01T04:15:51.125Z,17.78
2019-06-01T04:30:54.205Z,17.88
2019-06-01T04:45:51.061Z,17.93
2019-06-01T05:00:51.030Z,18.11
2019-06-01T05:15:51.445Z,18.13
2019-06-01T05:30:51.430Z,17.90
2019-06-01T05:45:51.339Z,17.41
2019-06-01T06:00:51.405Z,17.37
2019-06-01T06:15:56.669Z,17.63
2019-06-01T06:30:56.641Z,18.49
2019-06-01T06:45:50.686Z,20.39
2019-06-01T07:00:50.631Z,23.25
2019-06-01T07:15:50.864Z,25.43
2019-06-01T07:30:50.966Z,26.30
2019-06-01T07:45:50.896Z,25.80
2019-06-01T08:00:50.954Z,24.84
2019-06-01T08:15:51.283Z,25.88
2019-06-01T08:30:51.215Z,25.41
2019-06-01T08:45:53.727Z,24.17
2019-06-01T09:00:51.179Z,23.73
2019-06-01T09:15:56.432Z,23.46
2019-06-01T09:30:50.032Z,24.94
2019-06-01T09:45:53.935Z,25.95
2019-06-01T10:00:51.531Z,27.49
2019-06-01T10:15:50.855Z,28.05
2019-06-01T10:30:50.797Z,26.62
2019-06-01T10:45:50.838Z,25.21
2019-06-01T11:00:51.358Z,25.62
2019-06-01T11:15:51.024Z,26.46
2019-06-01T11:30:51.132Z,27.05
2019-06-01T11:45:51.058Z,27.32
2019-06-01T12:00:51.046Z,26.98
2019-06-01T12:15:51.379Z,25.91
2019-06-01T12:30:51.531Z,25.15
2019-06-01T12:46:07.308Z,24.73
2019-06-01T13:00:52.475Z,24.99
2019-06-01T13:15:51.430Z,24.52
2019-06-01T13:30:51.101Z,24.18
2019-06-01T13:45:52.176Z,23.92
2019-06-01T14:00:51.624Z,23.75
2019-06-01T14:15:53.885Z,23.44
2019-06-01T14:30:50.911Z,22.88
2019-06-01T14:45:51.543Z,22.29
2019-06-01T15:00:56.903Z,21.95
2019-06-01T15:15:51.428Z,21.71
2019-06-01T15:30:51.278Z,21.71
2019-06-01T15:45:51.286Z,21.53
2019-06-01T16:00:52.652Z,21.26
2019-06-01T16:15:50.625Z,21.27
2019-06-01T16:30:51.702Z,21.38
2019-06-01T16:45:50.536Z,21.41
2019-06-01T17:00:54.034Z,21.51
2019-06-01T17:15:50.971Z,21.28
2019-06-01T17:30:51.582Z,21.07
2019-06-01T17:45:51.038Z,20.26
2019-06-01T18:00:51.146Z,19.98
2019-06-01T18:15:51.238Z,20.14
2019-06-01T18:30:51.256Z,20.31
2019-06-01T18:45:51.324Z,19.91
2019-06-01T19:00:50.780Z,19.75
2019-06-01T19:15:53.605Z,19.52
2019-06-01T19:30:50.589Z,19.23
2019-06-01T19:45:50.651Z,19.04
2019-06-01T20:00:52.567Z,18.84
2019-06-01T20:15:50.895Z,18.66
2019-06-01T20:30:52.973Z,18.54
2019-06-01T20:45:56.842Z,18.44
2019-06-01T21:00:50.805Z,18.37
2019-06-01T21:15:50.554Z,18.31
2019-06-01T21:30:50.642Z,18.66
2019-06-01T21:45:50.581Z,19.05
2019-06-01T22:00:52.633Z,19.16
2019-06-01T22:15:51.545Z,19.30
2019-06-01T22:30:53.100Z,19.19
2019-06-01T22:45:54.488Z,19.23
2019-06-01T23:00:51.467Z,19.18
2019-06-01T23:15:50.685Z,18.96
2019-06-01T23:30:50.719Z,19.04
2019-06-01T23:45:50.700Z,19.06
